Cebollita Spring, Valles Caldera, New Mexico Weather observations

Data are for 10 minute period ending at time listed.
 Day   Time   Solar   Ave.   Ave.  Ave.  Vector  Max.   Baro.   Total    
  of    of     Rad.   Air    Rel.  Wind   Wind   Wind  Press.  Precip.   
Year   Day            Temp.  Hum.  Speed  Dir.   Gust                    
2015   (MST)  Kw/m2    F      %     mph   deg.    mph    mb.     in.     
-------------------------------------------------------------------------
 149    8:30   0.71   59.0    34    4.5   283     9.0   99999.0    0.00 
 149    8:40   0.82   59.7    33    5.0   266     9.0   99999.0    0.00 
 149    8:50   0.81   59.8    30    6.4   255    11.7   99999.0    0.00 
 149    9:00   0.87   60.4    31    6.2   247    12.5   99999.0    0.00 
 149    9:10   0.93   61.4    28    5.6   282    10.8   99999.0    0.00 
 149    9:20   0.82   61.8    28    4.6   296     9.6   99999.0    0.00 
 149    9:30   0.87   61.6    27    6.8   283    12.5   99999.0    0.00 
 149    9:40   0.90   61.9    28    6.0   282    11.9   99999.0    0.00 
 149    9:50   0.84   61.9    28    6.7   279    12.5   99999.0    0.00 
 149   10:00   0.96   61.5    28    6.5   283    12.5   99999.0    0.00 
 149   10:10   1.00   61.6    29    7.3   248    12.5   99999.0    0.00 
 149   10:20   1.04   62.1    28    7.3   253    14.9   99999.0    0.00 
 149   10:30   1.00   63.2    29    6.5   272    13.1   99999.0    0.00 
 149   10:40   1.07   63.1    26    7.6   294    13.1   99999.0    0.00 
 149   10:50   1.05   63.5    28    7.0   276    13.7   99999.0    0.00 
 149   11:00   0.99   63.3    28    7.8   298    13.1   99999.0    0.00 
 149   11:10   0.77   62.9    30    7.9   286    17.3   99999.0    0.00 
 149   11:20   0.76   62.3    30    9.4   289    20.3   99999.0    0.00 
 149   11:30   1.07   63.5    30    9.2   278    17.3   99999.0    0.00 
 149   11:40   1.00   64.1    29    9.4   249    15.5   99999.0    0.00 
 149   11:50   1.00   63.5    28    8.7   265    16.7   99999.0    0.00 
 149   12:00   0.94   64.2    26    8.2   282    19.7   99999.0    0.00 
 149   12:10   1.18   64.3    24    9.7   288    21.5   99999.0    0.00 
 149   12:20   1.05   65.3    23    8.4   276    20.3   99999.0    0.00 
 149   12:30   1.19   65.2    23   10.8   275    21.5   99999.0    0.00 
 149   12:40   1.21   66.0    23    7.9   258    14.9   99999.0    0.00 
 149   12:50   0.94   64.6    23   10.9   262    25.0   99999.0    0.00 
 149   13:00   1.10   65.4    23    6.9   262    13.1   99999.0    0.00 
 149   13:10   1.06   65.8    22    8.2   268    19.7   99999.0    0.00 
 149   13:20   1.06   66.3    22    7.0   252    13.1   99999.0    0.00 
 149   13:30   0.94   66.5    21    8.0   289    16.7   99999.0    0.00 
 149   13:40   0.98   66.7    20    9.2   266    19.1   99999.0    0.00 
 149   13:50   1.04   67.0    19   10.5   269    20.9   99999.0    0.00 
 149   14:00   1.09   67.0    20    7.7   292    15.5   99999.0    0.00 
 149   14:10   1.02   67.0    21    9.6   261    17.3   99999.0    0.00 
 149   14:20   0.95   67.7    23    6.7   290    13.1   99999.0    0.00 
 149   14:30   0.84   68.4    20    7.7   267    15.5   99999.0    0.00 
 149   14:40   0.69   66.5    23    8.3   302    20.3   99999.0    0.00 
 149   14:50   0.80   65.3    23    9.9   305    20.9   99999.0    0.00 
 149   15:00   0.92   67.9    18    9.5   273    21.5   99999.0    0.00 
 149   15:10   0.86   67.7    18    8.1   299    21.5   99999.0    0.00 
 149   15:20   0.81   68.1    16   11.6   269    26.8   99999.0    0.00 
 149   15:30   0.77   67.3    17    8.2   286    17.3   99999.0    0.00 
 149   15:40   0.63   67.0    18    9.3   269    19.1   99999.0    0.00 
 149   15:50   0.69   67.2    17    9.6   274    20.3   99999.0    0.00 
 149   16:00   0.58   67.6    16    9.2   270    17.9   99999.0    0.00 
 149   16:10   0.68   67.2    16    8.5   258    16.1   99999.0    0.00 
 149   16:20   0.55   67.3    15    8.3   271    16.7   99999.0    0.00 
 149   16:30   0.49   66.1    15   10.3   276    24.8   99999.0    0.00 
 149   16:40   0.32   64.8    15   10.8   280    19.7   99999.0    0.00 
 149   16:50   0.52   64.8    16   10.3   279    19.1   99999.0    0.00 
 149   17:00   0.44   65.6    16    9.6   286    22.1   99999.0    0.00 
 149   17:10   0.38   65.1    16   11.2   266    20.9   99999.0    0.00 
 149   17:20   0.25   63.9    16   10.6   288    22.1   99999.0    0.00 
 149   17:30   0.23   63.1    17    8.9   274    17.9   99999.0    0.00 
 149   17:40   0.27   63.4    18    8.9   267    17.3   99999.0    0.00 
 149   17:50   0.28   64.2    17    8.2   274    14.3   99999.0    0.00 
 149   18:00   0.21   63.0    17    7.4   273    16.1   99999.0    0.00 
 149   18:10   0.20   62.3    18    7.3   277    13.7   99999.0    0.00 
 149   18:20   0.15   61.8    17    6.3   277    11.3   99999.0    0.00 
 149   18:30   0.11   61.3    17    6.8   292    12.5   99999.0    0.00 
 149   18:40   0.07   60.7    16    7.1   267    15.5   99999.0    0.00 
 149   18:50   0.05   60.1    16    5.5   274    10.8   99999.0    0.00 
 149   19:00   0.03   58.9    18    5.1   275     9.6   99999.0    0.00 
 149   19:10   0.01   57.5    19    3.8   271    10.2   99999.0    0.00 
 149   19:20   0.01   56.3    20    3.1   280     6.0   99999.0    0.00 
 149   19:30   0.00   54.2    24    2.4   295     6.0   99999.0    0.00 
 149   19:40   0.00   50.9    29    1.7     6     3.6   99999.0    0.00 
 149   19:50   0.00   48.6    38    0.9    22     2.7   99999.0    0.00 
 149   20:00   0.00   46.3    46    0.8    41     2.4   99999.0    0.00 
 149   20:10   0.00   44.4    50    1.6    47     2.4   99999.0    0.00 
 149   20:20   0.00   43.2    53    1.2    36     2.4   99999.0    0.00 
 149   20:30   0.00   42.0    55    1.0    40     3.0   99999.0    0.00 
 149   20:40   0.00   41.0    57    1.9    35     3.6   99999.0    0.00 
 149   20:50   0.00   40.4    59    2.4    35     4.2   99999.0    0.00 
 149   21:00   0.00   39.9    60    0.8    41     1.8   99999.0    0.00 
 149   21:10   0.00   39.4    63    1.5    33     3.0   99999.0    0.00 
 149   21:20   0.00   39.1    63    0.9    23     2.4   99999.0    0.00 
 149   21:30   0.00   39.0    65    1.7     8     3.0   99999.0    0.00 
 149   21:40   0.00   39.2    63    1.8     0     3.6   99999.0    0.00 
 149   21:50   0.00   39.4    62    2.6   346     4.2   99999.0    0.00 
 149   22:00   0.00   39.8    64    3.5   337     5.4   99999.0    0.00 
 149   22:10   0.00   40.5    63    4.0   336     5.4   99999.0    0.00 
 149   22:20   0.00   41.1    61    4.1   331     6.0   99999.0    0.00 
 149   22:30   0.00   41.5    58    2.4   342     4.2   99999.0    0.00 
 149   22:40   0.00   41.3    60    1.2   358     3.0   99999.0    0.00 
 149   22:50   0.00   39.2    65    1.0    33     1.8   99999.0    0.00 
 149   23:00   0.00   37.7    70    0.4    38     1.8   99999.0    0.00 
 149   23:10   0.00   37.2    73    0.6    15     1.8   99999.0    0.00 
 149   23:20   0.00   37.1    73    1.0    36     2.4   99999.0    0.00 
 149   23:30   0.00   36.9    73    1.7    55     2.4   99999.0    0.00 
 149   23:40   0.00   36.6    73    1.0    53     1.8   99999.0    0.00 
 149   23:50   0.00   36.2    74    1.1    48     1.8   99999.0    0.00 
 150    0:00   0.00   35.6    76    2.2    72     3.6   99999.0    0.00 
 150    0:10   0.00   35.6    75    2.2    85     4.2   99999.0    0.00 
 150    0:20   0.00   36.1    77    0.8     6     2.4   99999.0    0.00 
 150    0:30   0.00   36.1    77    0.9   334     3.6   99999.0    0.00 
 150    0:40   0.00   36.0    79    0.9    46     2.4   99999.0    0.00 
 150    0:50   0.00   35.3    78    1.4    75     3.0   99999.0    0.00 
 150    1:00   0.00   34.9    80    0.9    52     2.4   99999.0    0.00 
 150    1:10   0.00   34.5    81    1.7    63     3.0   99999.0    0.00 
 150    1:20   0.00   34.2    83    0.1    73     1.2   99999.0    0.00 
 150    1:30   0.00   33.8    84    1.0    73     3.0   99999.0    0.00 
 150    1:40   0.00   33.5    86    1.1    58     3.6   99999.0    0.00 
 150    1:50   0.00   33.3    87    1.9    80     3.6   99999.0    0.00 
 150    2:00   0.00   33.3    89    0.7    60     2.4   99999.0    0.00 
 150    2:10   0.00   33.2    89    1.6    66     3.0   99999.0    0.00 
 150    2:20   0.00   33.1    92    1.6    60     3.0   99999.0    0.00 
 150    2:30   0.00   33.0    93    0.3    61     1.8   99999.0    0.00 
 150    2:40   0.00   33.2    94    0.7    62     2.4   99999.0    0.00 
 150    2:50   0.00   33.0    95    1.7    59     3.0   99999.0    0.00 
 150    3:00   0.00   33.0    96    1.1    69     2.4   99999.0    0.00 
 150    3:10   0.00   33.0    97    1.3    66     3.0   99999.0    0.00 
 150    3:20   0.00   32.9    97    1.3    66     3.0   99999.0    0.00 
 150    3:30   0.00   32.8    97    0.5    62     1.8   99999.0    0.00 
 150    3:40   0.00   32.7    97    0.9    66     2.4   99999.0    0.00 
 150    3:50   0.00   32.7    98    0.1    84     1.8   99999.0    0.00 
 150    4:00   0.00   32.5    98    2.1    67     3.0   99999.0    0.00 
 150    4:10   0.00   32.5    98    1.0    77     2.4   99999.0    0.00 
 150    4:20   0.00   32.7    99    0.8    66     3.0   99999.0    0.00 
 150    4:30   0.00   32.6    98    0.8   359     3.6   99999.0    0.00 
 150    4:40   0.00   32.8    99    0.1    98     1.8   99999.0    0.00 
 150    4:50   0.00   33.3    99    0.4    35     2.4   99999.0    0.00 
 150    5:00   0.01   33.6    99    0.5   110     1.8   99999.0    0.00 
 150    5:10   0.01   34.2    99    1.1   101     4.2   99999.0    0.00 
 150    5:20   0.02   35.6   100    2.5   130     6.6   99999.0    0.00 
 150    5:30   0.02   37.7   100    1.9   136     4.8   99999.0    0.00 
 150    5:40   0.04   39.8    99    1.8   127     3.6   99999.0    0.00 
 150    5:50   0.16   40.7    99    2.5   127     6.0   99999.0    0.00 
 150    6:00   0.20   41.8    99    2.0    99     6.0   99999.0    0.00 
 150    6:10   0.23   43.1    98    1.4   136     4.2   99999.0    0.00 
 150    6:20   0.27   44.7    93    2.0   159     4.8   99999.0    0.00 
 150    6:30   0.30   46.7    83    3.9   127    10.2   99999.0    0.00 
 150    6:40   0.32   47.1    80    3.6   125    10.8   99999.0    0.00 
 150    6:50   0.39   47.8    79    3.8   131     7.2   99999.0    0.00 
 150    7:00   0.42   48.6    77    3.5   127     8.4   99999.0    0.00 
 150    7:10   0.46   49.0    75    4.7   134    10.2   99999.0    0.00 
 150    7:20   0.51   49.6    74    3.4   143     7.2   99999.0    0.00 
 150    7:30   0.55   50.8    71    4.9   142     8.4   99999.0    0.00 
 150    7:40   0.61   50.9    70    6.2   119    10.8   99999.0    0.00 
 150    7:50   0.66   52.4    68    4.8   113     9.6   99999.0    0.00 
 150    8:00   0.69   52.8    65    5.5   144    10.2   99999.0    0.00 
 150    8:10   0.72   53.7    63    4.8   143    10.2   99999.0    0.00 
 150    8:20   0.72   53.8    62    5.6   122    10.2   99999.0    0.00 

Return to Cebollita Spring, Valles Caldera graphs page.


Western Regional Climate Center,wrcc@dri.edu